LIRP/PSA METAR and TAF weather

Enter ICAO airport designator
Station Type Date Time Source
LIRP METAR 2018/12/13 06:45 UTC NOAA

LIRP 130645Z 13010KT 9999 FEW040 BKN070 04/04 Q1014 NOSIG


Station Type Date Time Source
LIRP Decoded METAR 2018/12/13 06:45 UTC NOAA

Pisa / S. Giusto, Italy (LIRP) 43-41N 010-23E 6M
Dec 13, 2018 - 01:45 AM EST / 2018.12.13 0645 UTC
Wind: from the SE (130 degrees) at 12 MPH (10 KT):0
Visibility: greater than 7 mile(s):0
Sky conditions: mostly cloudy
Temperature: 39 F (4 C)
Dew Point: 39 F (4 C)
Relative Humidity: 100%
Pressure (altimeter): 29.94 in. Hg (1014 hPa)
ob: LIRP 130645Z 13010KT 9999 FEW040 BKN070 04/04 Q1014 NOSIG
cycle: 7

Station Type Date Time Source
LIRP TAF 2018/12/13 06:21 UTC NOAA

TAF LIRP 130500Z 1306/1406 10010KT 9999 SCT030 BKN060
TEMPO 1306/1309 RA
TEMPO 1400/1406 RA BKN015


Example: see airport list